Time,TemperatureF,DewpointF,PressureIn,WindDirection,WindDirectionDegrees,WindSpeedMPH,WindSpeedGustMPH,Humidity,HourlyPrecipIn,Conditions,Clouds,dailyrainin,SoftwareType,DateUTC
2013-01-09 00:02:00,33.0,31.0,-100.00,SSE,162,1.0,2.0,92,-99.99,,,-99.99,,2013-01-09 08:02:00,
2013-01-09 01:42:00,32.0,30.0,-100.00,SSE,155,0.0,2.0,93,-99.99,,,-99.99,,2013-01-09 09:42:00,
2013-01-09 01:53:00,32.0,30.0,-100.00,SSE,155,0.0,2.0,93,-99.99,,,-99.99,,2013-01-09 09:53:00,
2013-01-09 02:02:00,32.0,30.0,-100.00,SSE,155,0.0,2.0,93,-99.99,,,-99.99,,2013-01-09 10:02:00,
2013-01-09 02:42:00,31.0,30.0,-100.00,SSE,160,1.0,2.0,94,-99.99,,,-99.99,,2013-01-09 10:42:00,
2013-01-09 02:52:00,31.0,30.0,-100.00,SSE,160,1.0,2.0,94,-99.99,,,-99.99,,2013-01-09 10:52:00,
2013-01-09 03:02:00,31.0,30.0,-100.00,SSE,160,1.0,2.0,94,-99.99,,,-99.99,,2013-01-09 11:02:00,
2013-01-09 03:42:00,31.0,30.0,-100.00,SSE,158,2.0,3.0,94,-99.99,,,-99.99,,2013-01-09 11:42:00,
2013-01-09 03:53:00,31.0,30.0,-100.00,SSE,158,2.0,3.0,94,-99.99,,,-99.99,,2013-01-09 11:53:00,
2013-01-09 04:03:00,31.0,30.0,-100.00,SSE,165,1.0,3.0,95,-99.99,,,-99.99,,2013-01-09 12:03:00,
2013-01-09 04:12:00,31.0,30.0,-100.00,SSE,165,1.0,3.0,95,-99.99,,,-99.99,,2013-01-09 12:12:00,
2013-01-09 04:22:00,31.0,30.0,-100.00,SSE,165,1.0,3.0,95,-99.99,,,-99.99,,2013-01-09 12:22:00,
2013-01-09 05:02:00,31.0,29.0,-100.00,SSE,167,2.0,3.0,93,-99.99,,,-99.99,,2013-01-09 13:02:00,
2013-01-09 05:12:00,31.0,29.0,-100.00,SSE,167,2.0,3.0,93,-99.99,,,-99.99,,2013-01-09 13:12:00,
2013-01-09 05:22:00,32.0,31.0,-100.00,SE,136,1.0,2.0,95,-99.99,,,-99.99,,2013-01-09 13:22:00,
2013-01-09 05:32:00,32.0,31.0,-100.00,SE,136,1.0,2.0,95,-99.99,,,-99.99,,2013-01-09 13:32:00,
2013-01-09 19:22:00,36.0,29.0,-100.00,NE,56,6.0,11.0,76,-99.99,,,-99.99,,2013-01-10 03:22:00,
2013-01-09 19:32:00,36.0,29.0,-100.00,NE,56,6.0,11.0,76,-99.99,,,-99.99,,2013-01-10 03:32:00,
2013-01-09 19:42:00,36.0,29.0,-100.00,NE,56,6.0,11.0,76,-99.99,,,-99.99,,2013-01-10 03:42:00,
2013-01-09 22:42:00,27.0,27.0,-100.00,NE,51,5.0,9.0,98,-99.99,,,-99.99,,2013-01-10 06:42:00,
2013-01-09 22:52:00,27.0,27.0,-100.00,NE,51,5.0,9.0,98,-99.99,,,-99.99,,2013-01-10 06:52:00,
2013-01-09 23:02:00,27.0,27.0,-100.00,NE,51,5.0,9.0,98,-99.99,,,-99.99,,2013-01-10 07:02:00,